Terminal Aerodrome Forecast
Issued by NWS Sioux Falls, SD

Home | Current Version | Previous Version | Graphics & Text | Print | Product List | Glossary On
Versions: 1 2 3 4 5 6 7 8 9 10 11 12 13 14 15 16 17 18 19
000
FTUS43 KFSD 280258 AAC
TAFFSD
TAF AMD
KFSD 280258Z 2803/2824 13011KT 6SM SHRA SCT025 BKN060
      TEMPO 2803/2805 BKN025
     FM280500 10009KT 6SM SHRA SCT025 OVC080
     FM281000 08007KT 3SM BR OVC007
     FM281500 06010KT 6SM BR OVC010
     FM281800 05012KT P6SM BKN028
     FM282100 05012KT P6SM SCT035=

USA.gov is the U.S. government's official web portal to all federal, state and local government web resources and services.